Time;durP1;ratioP1;P1;durP2;ratioP2;P2;SDS_P1;SDS_P2;PMS_P1;PMS_P2;Temp;Humidity;BMP_temperature;BMP_pressure;BME280_temperature;BME280_humidity;BME280_pressure;Samples;Min_cycle;Max_cycle;Signal;HPM_P1;HPM_P2
2021/11/17 02:27:24;;;;;;;20.87;9.87;;;4.60;99.90;;;;;;5020346;28;20220;-48
2021/11/17 02:30:13;;;;;;;16.67;7.63;;;4.60;99.90;;;;;;5020407;28;20810;-46
2021/11/17 02:32:55;;;;;;;19.60;8.33;;;4.60;99.90;;;;;;5008901;28;20204;-49
2021/11/17 02:35:37;;;;;;;18.57;9.37;;;4.60;99.90;;;;;;5024647;28;20208;-48
2021/11/17 02:38:17;;;;;;;17.77;8.83;;;4.60;99.90;;;;;;5021087;28;20653;-45
2021/11/17 02:40:57;;;;;;;16.90;8.27;;;4.60;99.90;;;;;;5016675;28;20216;-48
2021/11/17 02:43:44;;;;;;;18.07;8.43;;;4.60;99.90;;;;;;5020304;28;20200;-49
2021/11/17 02:46:27;;;;;;;19.90;8.87;;;4.60;99.90;;;;;;5015211;28;20232;-51
2021/11/17 02:49:12;;;;;;;23.60;9.03;;;4.50;99.90;;;;;;5016044;28;20470;-48
2021/11/17 02:51:54;;;;;;;19.73;9.00;;;4.60;99.90;;;;;;5015819;28;20205;-48
2021/11/17 02:54:42;;;;;;;19.23;8.67;;;4.60;99.90;;;;;;5021717;28;20203;-50
2021/11/17 02:57:25;;;;;;;17.43;9.00;;;4.60;99.90;;;;;;5019866;28;20224;-48
2021/11/17 03:00:10;;;;;;;15.93;7.57;;;4.60;99.90;;;;;;5015516;28;20222;-47
2021/11/17 03:02:55;;;;;;;17.47;7.37;;;4.70;99.90;;;;;;5009293;28;20222;-49
2021/11/17 03:05:42;;;;;;;17.00;7.60;;;4.70;99.90;;;;;;5014501;28;20212;-48
2021/11/17 03:08:32;;;;;;;15.87;7.73;;;4.60;99.90;;;;;;5024206;28;20212;-51
2021/11/17 03:11:26;;;;;;;17.33;8.07;;;4.60;99.90;;;;;;5013388;28;20208;-52
2021/11/17 03:14:11;;;;;;;16.77;8.33;;;4.60;99.90;;;;;;5020435;28;20967;-48
2021/11/17 03:16:51;;;;;;;15.80;7.40;;;4.60;99.90;;;;;;5005292;28;20309;-48
2021/11/17 03:19:32;;;;;;;14.70;6.83;;;4.60;99.90;;;;;;5020591;28;20574;-50
2021/11/17 03:22:22;;;;;;;13.57;6.30;;;4.60;99.90;;;;;;5021278;28;20191;-50
2021/11/17 03:25:17;;;;;;;11.93;6.23;;;4.50;99.90;;;;;;5016642;28;20283;-46
2021/11/17 03:27:56;;;;;;;13.93;6.83;;;4.50;99.90;;;;;;5014283;28;20227;-50
2021/11/17 03:30:48;;;;;;;12.47;6.30;;;4.40;99.90;;;;;;5014914;28;20660;-52
2021/11/17 03:33:28;;;;;;;12.97;6.50;;;4.40;99.90;;;;;;5008589;28;20707;-46
2021/11/17 03:36:15;;;;;;;13.47;6.20;;;4.40;99.90;;;;;;5019316;28;20988;-46
2021/11/17 03:39:08;;;;;;;10.47;5.63;;;4.40;99.90;;;;;;5014828;28;20203;-45
2021/11/17 03:42:02;;;;;;;13.93;6.40;;;4.40;99.90;;;;;;5020920;28;20223;-50
2021/11/17 03:44:51;;;;;;;10.53;6.10;;;4.40;99.90;;;;;;5013409;28;20216;-48
2021/11/17 03:47:36;;;;;;;13.30;6.10;;;4.40;99.90;;;;;;5022290;28;20235;-46
2021/11/17 03:50:31;;;;;;;13.07;6.40;;;4.40;99.90;;;;;;5021446;28;20211;-46
2021/11/17 03:53:15;;;;;;;11.90;5.87;;;4.40;99.90;;;;;;5019333;28;20271;-47
2021/11/17 03:55:59;;;;;;;13.87;5.57;;;4.40;99.90;;;;;;5019884;28;20199;-51
2021/11/17 03:58:37;;;;;;;11.57;5.83;;;4.40;99.90;;;;;;5017355;28;20204;-45
2021/11/17 04:01:37;;;;;;;13.73;6.43;;;4.40;99.90;;;;;;5022694;28;20227;-48
2021/11/17 04:04:19;;;;;;;12.07;6.50;;;4.50;99.90;;;;;;4987772;28;20215;-45
2021/11/17 04:06:59;;;;;;;11.87;6.37;;;4.50;99.90;;;;;;5019417;28;20207;-48
2021/11/17 04:09:41;;;;;;;11.70;6.10;;;4.40;99.90;;;;;;5022712;28;20208;-52
2021/11/17 04:12:30;;;;;;;12.53;6.03;;;4.50;99.90;;;;;;5017907;28;20246;-48
2021/11/17 04:15:10;;;;;;;13.20;5.97;;;4.50;99.90;;;;;;5012007;28;20819;-48
2021/11/17 04:17:48;;;;;;;15.00;6.57;;;4.40;99.90;;;;;;5017931;28;20582;-47
2021/11/17 04:20:30;;;;;;;11.60;5.87;;;4.40;99.90;;;;;;5010205;28;20215;-47
2021/11/17 04:23:14;;;;;;;15.40;6.97;;;4.50;99.90;;;;;;5016237;28;20212;-49
2021/11/17 04:25:53;;;;;;;15.27;6.53;;;4.40;99.90;;;;;;5018910;28;20211;-48
2021/11/17 04:28:42;;;;;;;13.47;6.07;;;4.50;99.90;;;;;;5022257;28;20199;-49
2021/11/17 04:31:33;;;;;;;13.87;6.77;;;4.40;99.90;;;;;;5014363;28;20195;-49
2021/11/17 04:34:40;;;;;;;12.90;6.83;;;4.40;99.90;;;;;;5009200;28;20214;-47
2021/11/17 04:37:24;;;;;;;12.10;6.30;;;4.40;99.90;;;;;;5015554;28;20352;-50
2021/11/17 04:40:16;;;;;;;15.07;7.07;;;4.50;99.90;;;;;;5021403;28;20219;-51
2021/11/17 04:43:02;;;;;;;11.87;6.37;;;4.50;99.90;;;;;;5021942;28;20196;-52
2021/11/17 04:45:41;;;;;;;14.47;6.97;;;4.50;99.90;;;;;;5018349;28;20215;-47
2021/11/17 04:48:22;;;;;;;22.07;7.53;;;4.50;99.90;;;;;;5013787;28;20868;-50
2021/11/17 04:51:05;;;;;;;21.27;7.93;;;4.50;99.90;;;;;;5009744;28;20669;-49
2021/11/17 04:53:53;;;;;;;14.90;6.43;;;4.50;99.90;;;;;;5022995;28;20207;-47
2021/11/17 04:56:35;;;;;;;17.63;7.70;;;4.50;99.90;;;;;;5019379;28;20227;-48
2021/11/17 04:59:18;;;;;;;23.50;7.70;;;4.50;99.90;;;;;;5014287;28;20203;-49
2021/11/17 05:02:16;;;;;;;18.97;7.60;;;4.50;99.90;;;;;;5013359;28;20215;-48
2021/11/17 05:04:58;;;;;;;13.93;7.10;;;4.50;99.90;;;;;;5016561;28;20207;-47
2021/11/17 05:07:36;;;;;;;18.73;8.00;;;4.60;99.90;;;;;;5020856;28;20238;-47
2021/11/17 05:10:13;;;;;;;18.17;7.20;;;4.50;99.90;;;;;;5019247;28;20211;-50
2021/11/17 05:12:51;;;;;;;12.97;6.60;;;4.60;99.90;;;;;;5018130;28;20211;-48
2021/11/17 05:15:30;;;;;;;14.87;7.23;;;4.60;99.90;;;;;;5015165;28;20969;-48
2021/11/17 05:18:08;;;;;;;16.70;6.70;;;4.60;99.90;;;;;;5010408;28;20227;-49
2021/11/17 05:20:48;;;;;;;28.57;10.20;;;4.60;99.90;;;;;;5011042;28;20208;-48
2021/11/17 05:23:29;;;;;;;18.20;7.30;;;4.60;99.90;;;;;;5014986;28;21122;-47
2021/11/17 05:26:08;;;;;;;20.40;8.23;;;4.60;99.90;;;;;;5020440;28;20220;-51
2021/11/17 05:28:57;;;;;;;24.40;9.47;;;4.60;99.90;;;;;;5018609;28;20664;-47
2021/11/17 05:31:39;;;;;;;24.40;8.40;;;4.60;99.90;;;;;;5021033;28;20204;-46
2021/11/17 05:34:23;;;;;;;17.17;7.43;;;4.70;99.90;;;;;;5013215;28;20203;-45
2021/11/17 05:37:00;;;;;;;16.53;7.43;;;4.60;99.90;;;;;;5006393;28;20215;-48
2021/11/17 05:39:39;;;;;;;18.57;7.80;;;4.60;99.90;;;;;;5019913;28;20207;-49
2021/11/17 05:42:18;;;;;;;40.77;12.97;;;4.60;99.90;;;;;;5015251;28;20918;-46
2021/11/17 05:44:58;;;;;;;24.77;8.47;;;4.60;99.90;;;;;;5017472;28;20208;-50
2021/11/17 05:47:37;;;;;;;19.53;8.90;;;4.60;99.90;;;;;;5017960;28;20248;-49
2021/11/17 05:50:19;;;;;;;48.70;12.47;;;4.60;99.90;;;;;;5004904;28;20199;-47
2021/11/17 05:53:07;;;;;;;21.50;8.73;;;4.60;99.90;;;;;;5008085;28;20221;-48
2021/11/17 05:55:46;;;;;;;19.43;7.93;;;4.60;99.90;;;;;;5018235;28;20207;-49
2021/11/17 05:58:36;;;;;;;32.60;11.33;;;4.60;99.90;;;;;;5013954;28;20206;-47
2021/11/17 06:01:18;;;;;;;19.47;9.37;;;4.60;99.90;;;;;;5016336;28;20230;-48
2021/11/17 06:03:58;;;;;;;30.20;11.47;;;4.60;99.90;;;;;;5019270;28;20216;-50
2021/11/17 06:06:25;;;;;;;21.73;9.50;;;4.60;99.90;;;;;;5019988;28;20238;-48
2021/11/17 06:08:54;;;;;;;37.77;11.77;;;4.60;99.90;;;;;;5016054;28;20211;-46
2021/11/17 06:11:25;;;;;;;21.07;8.80;;;4.70;99.90;;;;;;5020920;28;20204;-49
2021/11/17 06:13:51;;;;;;;22.87;8.80;;;4.60;99.90;;;;;;5020069;28;20192;-49
2021/11/17 06:16:18;;;;;;;34.27;11.27;;;4.60;99.90;;;;;;5022813;28;20228;-50
2021/11/17 06:18:45;;;;;;;34.53;13.30;;;4.60;99.90;;;;;;5016866;28;21787;-47
2021/11/17 06:21:14;;;;;;;22.13;9.63;;;4.60;99.90;;;;;;5028301;28;20226;-47
2021/11/17 06:23:47;;;;;;;31.03;10.83;;;4.60;99.90;;;;;;5011338;28;20281;-47
2021/11/17 06:26:19;;;;;;;27.60;10.97;;;4.60;99.90;;;;;;5012963;28;20220;-49
2021/11/17 06:28:50;;;;;;;31.20;12.13;;;4.70;99.90;;;;;;5021757;28;20204;-46
2021/11/17 06:31:16;;;;;;;37.27;13.03;;;4.70;99.90;;;;;;5015092;28;20196;-45
2021/11/17 06:33:43;;;;;;;19.73;10.47;;;4.70;99.90;;;;;;5014580;28;20330;-49
2021/11/17 06:36:10;;;;;;;27.43;11.10;;;4.70;99.90;;;;;;5027697;28;20223;-45
2021/11/17 06:38:37;;;;;;;20.77;10.27;;;4.70;99.90;;;;;;5006870;28;20700;-47
2021/11/17 06:41:04;;;;;;;23.03;10.17;;;4.70;99.90;;;;;;5022705;28;20212;-46
2021/11/17 06:43:31;;;;;;;17.37;8.87;;;4.70;99.90;;;;;;5019849;28;20286;-51
2021/11/17 06:45:59;;;;;;;20.07;9.23;;;4.70;99.90;;;;;;5012137;28;20216;-50
2021/11/17 06:48:27;;;;;;;22.70;10.80;;;4.70;99.90;;;;;;5014080;28;20208;-49
2021/11/17 06:50:55;;;;;;;28.70;12.07;;;4.70;99.90;;;;;;5008356;28;20894;-50
2021/11/17 06:53:23;;;;;;;25.00;11.27;;;4.70;99.90;;;;;;5005659;28;20204;-48
2021/11/17 06:55:50;;;;;;;26.53;11.27;;;4.80;99.90;;;;;;5020149;28;20196;-46
2021/11/17 06:58:17;;;;;;;30.93;12.27;;;4.80;99.90;;;;;;5027317;28;20204;-50
2021/11/17 07:00:46;;;;;;;26.47;12.37;;;4.80;99.90;;;;;;5017905;28;20239;-49
2021/11/17 07:03:14;;;;;;;37.53;14.97;;;4.80;99.90;;;;;;5017979;28;20212;-46
2021/11/17 07:05:41;;;;;;;27.33;12.57;;;4.80;99.90;;;;;;5021462;28;20197;-48
2021/11/17 07:08:08;;;;;;;35.43;15.60;;;4.80;99.90;;;;;;5025337;28;20215;-47
2021/11/17 07:10:37;;;;;;;25.47;12.37;;;4.80;99.90;;;;;;5015863;28;20223;-44
2021/11/17 07:13:05;;;;;;;30.63;13.93;;;4.80;99.90;;;;;;5023770;28;20195;-44
2021/11/17 07:15:33;;;;;;;26.53;13.20;;;4.80;99.90;;;;;;5025010;28;20206;-46
2021/11/17 07:18:00;;;;;;;33.30;13.97;;;4.80;99.90;;;;;;5010174;28;20227;-44
2021/11/17 07:20:28;;;;;;;41.87;16.13;;;4.80;99.90;;;;;;5021871;28;20560;-44
2021/11/17 07:22:55;;;;;;;27.53;15.37;;;4.80;99.90;;;;;;5005865;28;20193;-45
2021/11/17 07:25:23;;;;;;;36.23;16.23;;;4.80;99.90;;;;;;5011355;28;20683;-46
2021/11/17 07:27:51;;;;;;;38.23;16.33;;;4.90;99.90;;;;;;5021988;28;20204;-48
2021/11/17 07:30:21;;;;;;;37.07;14.73;;;4.90;99.90;;;;;;5019498;28;20214;-45
2021/11/17 07:32:48;;;;;;;35.03;15.87;;;4.90;99.90;;;;;;5006482;28;20207;-45
2021/11/17 07:35:15;;;;;;;38.50;16.07;;;5.00;99.90;;;;;;5023393;28;20208;-44
2021/11/17 07:37:43;;;;;;;30.57;14.80;;;5.00;99.90;;;;;;5017000;28;20238;-46
2021/11/17 07:40:12;;;;;;;31.37;14.33;;;5.00;99.90;;;;;;5020820;28;20287;-49
2021/11/17 07:42:39;;;;;;;30.17;14.83;;;5.00;99.90;;;;;;5012007;28;20226;-47
2021/11/17 07:45:07;;;;;;;30.10;14.87;;;5.00;99.90;;;;;;5027055;28;20196;-44
2021/11/17 07:47:34;;;;;;;29.47;14.03;;;5.10;99.90;;;;;;5017935;28;20231;-46
2021/11/17 07:50:02;;;;;;;27.27;14.30;;;5.10;99.90;;;;;;5026113;28;20188;-45
2021/11/17 07:52:29;;;;;;;29.93;13.37;;;5.10;99.90;;;;;;5018472;28;20212;-46
2021/11/17 07:54:57;;;;;;;52.77;16.90;;;5.10;99.90;;;;;;5017884;28;20211;-48
2021/11/17 07:57:24;;;;;;;33.40;15.80;;;5.20;99.90;;;;;;5011901;28;20231;-47
2021/11/17 07:59:51;;;;;;;33.40;15.93;;;5.20;99.90;;;;;;5018496;28;20209;-47
2021/11/17 08:02:20;;;;;;;32.63;14.77;;;5.20;99.90;;;;;;5014607;28;20677;-48
2021/11/17 08:04:47;;;;;;;29.97;13.93;;;5.20;99.90;;;;;;5006558;28;20205;-44
2021/11/17 08:07:18;;;;;;;35.33;14.43;;;5.20;99.90;;;;;;5011881;28;20220;-45
2021/11/17 08:09:47;;;;;;;32.50;14.63;;;5.20;99.90;;;;;;5022775;28;20610;-47
2021/11/17 08:12:15;;;;;;;29.77;12.97;;;5.20;99.90;;;;;;5004230;28;20743;-50
2021/11/17 08:14:42;;;;;;;36.63;14.67;;;5.20;99.90;;;;;;5015895;28;20195;-46
2021/11/17 08:17:09;;;;;;;30.70;13.57;;;5.30;99.90;;;;;;5020286;28;20228;-49
2021/11/17 08:19:35;;;;;;;39.93;14.67;;;5.20;99.90;;;;;;5025754;28;20199;-48
2021/11/17 08:22:06;;;;;;;39.17;15.23;;;5.20;99.90;;;;;;5022316;28;20220;-44
2021/11/17 08:24:33;;;;;;;39.20;16.10;;;5.30;99.90;;;;;;5017001;28;20314;-48
2021/11/17 08:27:00;;;;;;;40.80;15.47;;;5.30;99.90;;;;;;5011173;28;20219;-48
2021/11/17 08:29:28;;;;;;;29.83;13.53;;;5.30;99.90;;;;;;5025523;28;20249;-44
2021/11/17 08:31:55;;;;;;;41.53;16.67;;;5.30;99.90;;;;;;5029198;28;20196;-48
2021/11/17 08:34:21;;;;;;;33.70;14.83;;;5.40;99.90;;;;;;5015986;28;20824;-48
2021/11/17 08:36:48;;;;;;;43.00;17.10;;;5.30;99.90;;;;;;5024356;28;20208;-48
2021/11/17 08:39:17;;;;;;;26.83;12.77;;;5.40;99.90;;;;;;5011840;28;20227;-47
2021/11/17 08:41:43;;;;;;;27.70;12.43;;;5.40;99.90;;;;;;5001905;28;20331;-44
2021/11/17 08:44:10;;;;;;;29.83;12.80;;;5.40;99.90;;;;;;5012979;28;20208;-45
2021/11/17 08:46:38;;;;;;;30.27;13.70;;;5.40;99.90;;;;;;5020750;28;20212;-48
2021/11/17 08:49:06;;;;;;;46.07;17.97;;;5.50;99.90;;;;;;5019016;28;20196;-44
2021/11/17 08:51:33;;;;;;;35.27;14.57;;;5.50;99.90;;;;;;5023399;28;20636;-44
2021/11/17 08:54:02;;;;;;;33.20;14.53;;;5.50;99.90;;;;;;5018951;28;20212;-45
2021/11/17 08:56:29;;;;;;;35.60;14.27;;;5.50;99.90;;;;;;5013664;28;20227;-47
2021/11/17 08:58:56;;;;;;;33.27;14.63;;;5.50;99.90;;;;;;5009936;28;21365;-44
2021/11/17 09:01:23;;;;;;;27.57;12.27;;;5.50;99.90;;;;;;5024717;28;20212;-46
2021/11/17 09:03:51;;;;;;;25.97;12.27;;;5.50;99.90;;;;;;5007428;28;20215;-46
2021/11/17 09:06:18;;;;;;;27.90;12.80;;;5.50;99.90;;;;;;5018706;28;20219;-49
2021/11/17 09:08:44;;;;;;;25.20;12.40;;;5.60;99.90;;;;;;5016688;28;20211;-49
2021/11/17 09:11:14;;;;;;;25.27;12.00;;;5.60;99.90;;;;;;5011707;28;20210;-45
2021/11/17 09:13:41;;;;;;;28.40;12.23;;;5.60;99.90;;;;;;5009530;28;20207;-47
2021/11/17 09:16:09;;;;;;;32.47;12.67;;;5.60;99.90;;;;;;5019798;28;20227;-46
2021/11/17 09:18:37;;;;;;;26.93;11.17;;;5.60;99.90;;;;;;5020514;28;20291;-48
2021/11/17 09:21:08;;;;;;;29.60;12.63;;;5.60;99.90;;;;;;5016884;28;20208;-48
2021/11/17 09:23:35;;;;;;;24.73;12.00;;;5.60;99.90;;;;;;5015430;28;20227;-49
2021/11/17 09:26:02;;;;;;;29.40;12.33;;;5.70;99.90;;;;;;5018053;28;20228;-48
2021/11/17 09:28:30;;;;;;;22.00;11.30;;;5.70;99.90;;;;;;5001383;28;20207;-45
2021/11/17 09:30:57;;;;;;;35.83;14.10;;;5.70;99.90;;;;;;5017654;28;20208;-49
2021/11/17 09:33:25;;;;;;;30.67;13.23;;;5.70;99.90;;;;;;5023893;28;20196;-49
2021/11/17 09:35:52;;;;;;;29.67;13.53;;;5.70;99.90;;;;;;5013873;28;20219;-47
2021/11/17 09:38:20;;;;;;;37.33;13.80;;;5.80;99.90;;;;;;5023912;28;20188;-46
2021/11/17 09:40:50;;;;;;;37.47;14.37;;;5.80;99.90;;;;;;5016925;28;20207;-45
2021/11/17 09:43:19;;;;;;;33.37;12.53;;;5.80;99.90;;;;;;5006082;28;21900;-45
2021/11/17 09:45:48;;;;;;;28.77;12.13;;;5.80;99.90;;;;;;5020570;28;20196;-46
2021/11/17 09:48:18;;;;;;;34.53;13.10;;;5.80;99.90;;;;;;5024114;28;20192;-45
2021/11/17 09:50:47;;;;;;;30.40;13.50;;;5.80;99.90;;;;;;5029488;28;20212;-48
2021/11/17 09:53:18;;;;;;;40.30;14.17;;;5.90;99.90;;;;;;5020750;28;20287;-46
2021/11/17 09:55:49;;;;;;;33.80;13.47;;;5.90;99.90;;;;;;5026220;28;20615;-47
2021/11/17 09:58:19;;;;;;;30.73;13.17;;;5.90;99.90;;;;;;5004630;28;20211;-47
2021/11/17 10:00:49;;;;;;;36.37;13.40;;;5.90;99.90;;;;;;5020225;28;20219;-46
2021/11/17 10:03:20;;;;;;;49.27;16.10;;;6.00;99.90;;;;;;5019067;28;20216;-48
2021/11/17 10:06:23;;;;;;;56.07;17.40;;;6.00;99.90;;;;;;5030014;28;20203;-52
2021/11/17 10:09:25;;;;;;;31.60;12.97;;;6.00;99.90;;;;;;5018539;28;20282;-49
2021/11/17 10:14:59;;;;;;;29.50;12.13;;;6.00;99.90;;;;;;5002967;28;20207;-47
2021/11/17 10:17:33;;;;;;;46.57;15.07;;;6.10;99.90;;;;;;5014642;28;20742;-47
2021/11/17 10:20:14;;;;;;;39.37;13.80;;;6.10;99.90;;;;;;5021959;28;20301;-48
2021/11/17 10:22:43;;;;;;;51.27;18.00;;;6.10;99.90;;;;;;5017108;28;20229;-49
2021/11/17 10:25:12;;;;;;;38.93;14.87;;;6.10;99.90;;;;;;5023028;28;20936;-45
2021/11/17 10:27:51;;;;;;;32.23;12.60;;;6.10;99.90;;;;;;5014044;28;20274;-45
2021/11/17 10:30:26;;;;;;;41.93;14.67;;;6.10;99.90;;;;;;5010959;28;20206;-45
2021/11/17 10:33:07;;;;;;;28.13;12.07;;;6.10;99.90;;;;;;5017135;28;20191;-51
2021/11/17 10:35:38;;;;;;;32.20;12.57;;;6.20;99.90;;;;;;5018532;28;20211;-45
2021/11/17 10:38:19;;;;;;;33.30;13.10;;;6.20;99.90;;;;;;5018042;28;20326;-49
2021/11/17 10:40:53;;;;;;;31.80;13.07;;;6.20;99.90;;;;;;5020165;28;20199;-51
2021/11/17 10:43:24;;;;;;;36.00;14.10;;;6.20;99.90;;;;;;5019633;28;21240;-47
2021/11/17 10:45:59;;;;;;;31.97;13.10;;;6.30;99.90;;;;;;5008067;28;20208;-47
2021/11/17 10:48:30;;;;;;;36.37;12.50;;;6.30;99.90;;;;;;5013561;28;20574;-43
2021/11/17 10:51:08;;;;;;;26.03;11.77;;;6.30;99.90;;;;;;5017910;28;20302;-47
2021/11/17 10:53:36;;;;;;;28.03;10.97;;;6.30;99.90;;;;;;5017969;28;20204;-45
2021/11/17 10:56:05;;;;;;;25.70;12.60;;;6.30;99.90;;;;;;5006239;28;20219;-49
2021/11/17 10:58:37;;;;;;;27.37;11.50;;;6.40;99.90;;;;;;5014499;28;20208;-45
2021/11/17 11:01:13;;;;;;;28.20;11.87;;;6.40;99.90;;;;;;5008076;28;20212;-45
2021/11/17 11:03:41;;;;;;;27.10;11.83;;;6.40;99.90;;;;;;5016530;28;20235;-45
2021/11/17 11:06:25;;;;;;;27.97;12.23;;;6.40;99.90;;;;;;5022945;28;20235;-47
2021/11/17 11:08:58;;;;;;;28.17;12.30;;;6.40;99.90;;;;;;5021188;28;20208;-46
2021/11/17 11:11:25;;;;;;;21.90;11.23;;;6.50;99.90;;;;;;5012157;28;20204;-50
2021/11/17 11:13:56;;;;;;;29.27;12.03;;;6.50;99.90;;;;;;5019955;28;20624;-46
2021/11/17 11:16:30;;;;;;;34.43;13.80;;;6.50;99.90;;;;;;5008997;28;20953;-47
2021/11/17 11:19:41;;;;;;;30.33;13.37;;;6.50;99.90;;;;;;5019887;28;20200;-44
2021/11/17 11:22:14;;;;;;;29.73;12.60;;;6.50;99.90;;;;;;5008089;28;20294;-49
2021/11/17 11:24:44;;;;;;;33.67;14.27;;;6.50;99.90;;;;;;5017396;28;20357;-44
2021/11/17 11:27:21;;;;;;;39.73;14.50;;;6.60;99.90;;;;;;5005312;28;20229;-48
2021/11/17 11:29:52;;;;;;;31.37;15.33;;;6.60;99.90;;;;;;5014875;28;20204;-44
2021/11/17 11:32:49;;;;;;;42.83;16.63;;;6.70;99.90;;;;;;5008639;28;20212;-49
2021/11/17 11:35:25;;;;;;;42.13;17.87;;;6.70;99.90;;;;;;5015752;28;20208;-45
2021/11/17 11:38:06;;;;;;;42.13;17.67;;;6.80;99.90;;;;;;5009141;28;20220;-44
2021/11/17 11:41:06;;;;;;;43.07;18.00;;;6.80;99.90;;;;;;5017415;28;20701;-46
2021/11/17 11:43:35;;;;;;;52.73;19.67;;;6.90;99.90;;;;;;5016275;28;20216;-49
2021/11/17 11:46:32;;;;;;;46.67;19.30;;;6.90;99.90;;;;;;5004086;28;20226;-47
2021/11/17 11:49:09;;;;;;;50.07;20.80;;;7.00;99.90;;;;;;5020188;28;20192;-47
2021/11/17 11:52:00;;;;;;;57.57;21.57;;;7.00;99.90;;;;;;5009240;28;20199;-49
2021/11/17 11:54:29;;;;;;;51.07;23.10;;;7.00;99.90;;;;;;5004672;28;20220;-52
2021/11/17 11:57:27;;;;;;;52.23;19.77;;;7.00;99.90;;;;;;5015488;28;20238;-46
2021/11/17 11:59:57;;;;;;;49.73;19.83;;;7.10;99.90;;;;;;5017871;28;20199;-47
2021/11/17 12:02:27;;;;;;;50.27;22.47;;;7.10;99.90;;;;;;5003319;28;20220;-48
2021/11/17 12:04:58;;;;;;;49.37;21.67;;;7.10;99.90;;;;;;5024114;28;20274;-49
2021/11/17 12:07:30;;;;;;;51.37;22.63;;;7.20;99.90;;;;;;5017921;28;20302;-49
2021/11/17 12:10:01;;;;;;;55.90;23.97;;;7.20;99.90;;;;;;5018625;28;20208;-47
2021/11/17 12:12:31;;;;;;;51.13;22.90;;;7.20;99.90;;;;;;5018530;28;20202;-47
2021/11/17 12:15:16;;;;;;;47.50;22.33;;;7.30;99.90;;;;;;5013768;28;20204;-47
2021/11/17 12:17:45;;;;;;;47.60;20.20;;;7.30;99.90;;;;;;5004396;28;20680;-49
2021/11/17 12:20:23;;;;;;;49.70;22.63;;;7.30;99.90;;;;;;5010628;28;21107;-48
2021/11/17 12:22:52;;;;;;;44.57;21.03;;;7.40;99.90;;;;;;5006966;28;20219;-46
2021/11/17 12:25:22;;;;;;;51.57;22.97;;;7.40;99.90;;;;;;5021978;28;20929;-44
2021/11/17 12:27:55;;;;;;;48.70;22.23;;;7.50;99.90;;;;;;5015681;28;20230;-46
2021/11/17 12:30:33;;;;;;;50.80;22.07;;;7.50;99.90;;;;;;5020523;28;20203;-47
2021/11/17 12:33:15;;;;;;;40.60;20.43;;;7.60;99.90;;;;;;5002980;28;20215;-48
2021/11/17 12:35:44;;;;;;;49.70;23.00;;;7.70;99.90;;;;;;5023312;28;20208;-45
2021/11/17 12:38:14;;;;;;;46.40;22.57;;;7.80;99.90;;;;;;5009616;28;20203;-48
2021/11/17 12:40:48;;;;;;;44.47;21.47;;;7.90;99.90;;;;;;5023804;28;20204;-45
2021/11/17 12:43:28;;;;;;;48.13;22.10;;;7.90;99.90;;;;;;5011233;28;21767;-51
2021/11/17 12:46:05;;;;;;;43.20;21.20;;;7.90;99.90;;;;;;5019621;28;20203;-44
2021/11/17 12:48:36;;;;;;;44.23;20.63;;;8.00;99.90;;;;;;5005898;28;20215;-46
2021/11/17 12:51:09;;;;;;;38.57;18.70;;;8.00;99.90;;;;;;5013496;28;20211;-48
2021/11/17 12:53:43;;;;;;;39.03;19.07;;;8.10;99.90;;;;;;5009235;28;20221;-44
2021/11/17 12:56:17;;;;;;;38.40;19.33;;;8.10;99.90;;;;;;5024970;28;20215;-44
2021/11/17 12:58:48;;;;;;;41.50;20.10;;;8.10;99.90;;;;;;5010221;28;20212;-48
2021/11/17 13:01:21;;;;;;;44.27;20.83;;;8.20;99.90;;;;;;5028765;28;20199;-44
2021/11/17 13:04:05;;;;;;;39.70;20.33;;;8.20;99.90;;;;;;5005721;28;20223;-46
2021/11/17 13:06:45;;;;;;;40.17;20.10;;;8.20;99.90;;;;;;5015522;28;20237;-51
2021/11/17 13:09:15;;;;;;;39.90;20.07;;;8.20;99.90;;;;;;5018472;28;20303;-46
2021/11/17 13:12:15;;;;;;;32.87;17.63;;;8.20;99.90;;;;;;5020802;28;20219;-44
2021/11/17 13:15:07;;;;;;;31.97;15.40;;;8.20;99.90;;;;;;5013019;28;20227;-46
2021/11/17 13:17:39;;;;;;;28.97;15.67;;;8.20;99.90;;;;;;5019121;28;20226;-45
2021/11/17 13:20:37;;;;;;;34.50;16.60;;;8.20;99.90;;;;;;5011552;28;20235;-46
2021/11/17 13:23:32;;;;;;;32.67;16.13;;;8.30;99.90;;;;;;5019283;28;20750;-45
2021/11/17 13:26:10;;;;;;;27.27;14.33;;;8.30;99.90;;;;;;5025973;28;20727;-45
2021/11/17 13:28:41;;;;;;;28.50;15.07;;;8.30;99.90;;;;;;5019569;28;20795;-47
2021/11/17 13:31:27;;;;;;;30.53;14.77;;;8.30;99.90;;;;;;5026815;28;20208;-45
2021/11/17 13:33:56;;;;;;;37.60;16.27;;;8.30;99.90;;;;;;5025149;28;20943;-47
2021/11/17 13:36:49;;;;;;;31.20;14.67;;;8.40;99.90;;;;;;5014982;28;20230;-48
2021/11/17 13:39:18;;;;;;;29.07;14.73;;;8.40;99.90;;;;;;5024320;28;20223;-45
2021/11/17 13:41:47;;;;;;;28.80;14.13;;;8.50;99.90;;;;;;5016255;28;20274;-45
2021/11/17 13:44:16;;;;;;;27.70;14.73;;;8.50;99.90;;;;;;5024795;28;20216;-45
2021/11/17 13:46:56;;;;;;;25.60;14.13;;;8.50;99.90;;;;;;5013411;28;20223;-44
2021/11/17 13:49:26;;;;;;;30.03;15.10;;;8.50;99.90;;;;;;5024421;28;20215;-45
2021/11/17 13:51:54;;;;;;;33.23;14.77;;;8.50;99.90;;;;;;5013154;28;20212;-45
2021/11/17 13:54:22;;;;;;;33.23;16.40;;;8.50;99.90;;;;;;5027129;28;20200;-46
2021/11/17 13:56:49;;;;;;;26.17;13.57;;;8.60;99.90;;;;;;5022984;28;20228;-45
2021/11/17 13:59:16;;;;;;;30.70;14.87;;;8.60;99.90;;;;;;5021496;28;20219;-48
2021/11/17 14:01:43;;;;;;;30.17;15.70;;;8.60;99.90;;;;;;5025003;28;20208;-47
2021/11/17 14:04:10;;;;;;;29.53;13.63;;;8.60;99.90;;;;;;5021900;28;20700;-47
2021/11/17 14:06:37;;;;;;;33.80;14.53;;;8.60;99.90;;;;;;5010372;28;20619;-46
2021/11/17 14:09:06;;;;;;;30.50;14.90;;;8.70;99.90;;;;;;5019247;28;20290;-47
2021/11/17 14:11:34;;;;;;;23.80;13.03;;;8.70;99.90;;;;;;5020875;28;20199;-45
2021/11/17 14:14:01;;;;;;;29.60;14.17;;;8.70;99.90;;;;;;5013072;28;20205;-46
2021/11/17 14:16:28;;;;;;;26.80;13.87;;;8.70;99.90;;;;;;5027601;28;20215;-45
2021/11/17 14:18:55;;;;;;;31.57;15.83;;;8.70;99.90;;;;;;5020813;28;20208;-46
2021/11/17 14:21:24;;;;;;;27.27;13.43;;;8.70;99.90;;;;;;5023999;28;20204;-43
2021/11/17 14:23:51;;;;;;;30.13;13.50;;;8.70;99.90;;;;;;5003813;28;20231;-44
2021/11/17 14:26:19;;;;;;;31.40;14.10;;;8.70;99.90;;;;;;5016207;28;20227;-45
2021/11/17 14:28:49;;;;;;;31.43;14.77;;;8.80;99.90;;;;;;5025096;28;20207;-45
2021/11/17 14:31:21;;;;;;;34.33;14.40;;;8.80;99.90;;;;;;5022583;28;20211;-44
2021/11/17 14:33:51;;;;;;;28.67;13.80;;;8.80;99.90;;;;;;5018150;28;20223;-42
2021/11/17 14:36:21;;;;;;;31.77;13.27;;;8.80;99.90;;;;;;5015148;28;20285;-45
2021/11/17 14:38:48;;;;;;;25.80;13.73;;;8.80;99.90;;;;;;5014642;28;20200;-43
2021/11/17 14:41:15;;;;;;;28.80;13.87;;;8.80;99.90;;;;;;5012834;28;20227;-50
2021/11/17 14:43:43;;;;;;;33.00;14.23;;;8.80;99.90;;;;;;5027758;28;20684;-46
2021/11/17 14:46:12;;;;;;;32.10;14.57;;;8.80;99.90;;;;;;5017659;28;20216;-43
2021/11/17 14:48:38;;;;;;;34.33;14.67;;;8.80;99.90;;;;;;5022348;28;20228;-48
2021/11/17 14:51:05;;;;;;;32.07;14.83;;;8.80;99.90;;;;;;5007929;28;20219;-47
2021/11/17 14:53:32;;;;;;;29.00;13.67;;;8.80;99.90;;;;;;5006500;28;20212;-48
2021/11/17 14:55:59;;;;;;;27.20;14.87;;;8.80;99.90;;;;;;5013718;28;20220;-46
2021/11/17 14:58:25;;;;;;;35.67;14.90;;;8.70;99.90;;;;;;5017548;28;20200;-49
2021/11/17 15:00:57;;;;;;;32.70;13.93;;;8.70;99.90;;;;;;5015719;28;20219;-47
2021/11/17 15:03:24;;;;;;;34.77;15.20;;;8.70;99.90;;;;;;5020578;28;20223;-47
2021/11/17 15:05:51;;;;;;;31.93;14.63;;;8.70;99.90;;;;;;5021519;28;20196;-48
2021/11/17 15:08:18;;;;;;;31.20;14.37;;;8.70;99.90;;;;;;4997986;28;20213;-50
2021/11/17 15:10:47;;;;;;;30.43;13.77;;;8.70;99.90;;;;;;5018543;28;20207;-49
2021/11/17 15:13:14;;;;;;;39.63;15.27;;;8.70;99.90;;;;;;5016457;28;20208;-47
2021/11/17 15:15:45;;;;;;;32.80;15.03;;;8.70;99.90;;;;;;5032005;28;20649;-45
2021/11/17 15:18:16;;;;;;;29.67;13.73;;;8.70;99.90;;;;;;5014723;28;20210;-47
2021/11/17 15:20:43;;;;;;;32.03;14.47;;;8.70;99.90;;;;;;5028951;28;20287;-46
2021/11/17 15:23:09;;;;;;;29.97;15.07;;;8.70;99.90;;;;;;5019514;28;20204;-49
2021/11/17 15:25:39;;;;;;;35.93;15.47;;;8.70;99.90;;;;;;5012205;28;20200;-47
2021/11/17 15:28:08;;;;;;;36.00;16.77;;;8.70;99.90;;;;;;5021280;28;20200;-47
2021/11/17 15:30:38;;;;;;;34.73;16.23;;;8.70;99.90;;;;;;5024304;28;20874;-46
2021/11/17 15:33:05;;;;;;;29.80;14.17;;;8.70;99.90;;;;;;5020451;28;20200;-48
2021/11/17 15:35:34;;;;;;;37.03;15.10;;;8.70;99.90;;;;;;5018432;28;20211;-48
2021/11/17 15:38:03;;;;;;;34.00;13.73;;;8.70;99.90;;;;;;5018880;28;20223;-47
2021/11/17 15:40:33;;;;;;;29.37;13.93;;;8.70;99.90;;;;;;5017096;28;20978;-47
2021/11/17 15:43:00;;;;;;;28.83;12.77;;;8.70;99.90;;;;;;5018310;28;20204;-47
2021/11/17 15:45:27;;;;;;;29.47;12.23;;;8.60;99.90;;;;;;5015110;28;20266;-47
2021/11/17 15:47:54;;;;;;;24.03;11.00;;;8.60;99.90;;;;;;5023600;28;20223;-47